createdAt,value
2023-01-30T00:02:07.130Z,6.94
2023-01-30T00:03:07.173Z,6.91
2023-01-30T00:04:07.203Z,6.63
2023-01-30T00:05:07.289Z,6.54
2023-01-30T00:06:07.362Z,6.27
2023-01-30T00:07:07.403Z,6.63
2023-01-30T00:08:07.442Z,7.37
2023-01-30T00:09:07.491Z,6.84
2023-01-30T00:10:07.520Z,6.81
2023-01-30T00:11:08.032Z,6.34
2023-01-30T00:12:07.677Z,6.54
2023-01-30T00:13:07.721Z,6.52
2023-01-30T00:14:07.761Z,6.82
2023-01-30T00:15:07.823Z,6.40
2023-01-30T00:16:07.907Z,6.11
2023-01-30T00:17:07.918Z,6.85
2023-01-30T00:18:07.978Z,6.44
2023-01-30T00:19:08.022Z,6.09
2023-01-30T00:20:08.096Z,6.46
2023-01-30T00:21:08.131Z,5.88
2023-01-30T00:22:08.170Z,5.98
2023-01-30T00:23:08.256Z,6.57
2023-01-30T00:24:08.338Z,6.75
2023-01-30T00:25:08.466Z,6.19
2023-01-30T00:26:08.470Z,6.45
2023-01-30T00:27:08.468Z,6.32
2023-01-30T00:28:08.530Z,5.63
2023-01-30T00:29:08.600Z,6.94
2023-01-30T00:30:08.643Z,6.72
2023-01-30T00:31:08.698Z,6.25
2023-01-30T00:32:08.742Z,6.63
2023-01-30T00:33:08.795Z,6.38
2023-01-30T00:34:08.815Z,6.01
2023-01-30T00:35:08.839Z,6.91
2023-01-30T00:36:08.926Z,6.33
2023-01-30T00:37:08.929Z,6.23
2023-01-30T00:38:08.973Z,6.21
2023-01-30T00:39:09.021Z,6.78
2023-01-30T00:40:09.074Z,6.66
2023-01-30T00:41:09.062Z,6.12
2023-01-30T00:42:09.092Z,7.18
2023-01-30T00:43:09.186Z,6.95
2023-01-30T00:44:09.159Z,6.74
2023-01-30T00:45:09.205Z,6.21
2023-01-30T00:46:09.340Z,6.96
2023-01-30T01:44:11.776Z,7.03
2023-01-30T01:45:11.795Z,6.89
2023-01-30T01:46:11.929Z,6.47
2023-01-30T01:47:11.953Z,7.48
2023-01-30T01:48:12.027Z,6.49
2023-01-30T01:49:12.062Z,6.47
2023-01-30T01:50:12.111Z,6.78
2023-01-30T01:51:12.169Z,6.73
2023-01-30T01:52:12.257Z,6.42
2023-01-30T01:53:12.297Z,6.09
2023-01-30T01:54:12.367Z,6.78
2023-01-30T01:55:12.401Z,7.30
2023-01-30T01:56:12.478Z,7.03
2023-01-30T01:57:12.538Z,6.72
2023-01-30T01:58:12.572Z,6.74
2023-01-30T01:59:12.656Z,7.08
2023-01-30T02:00:12.726Z,7.31
2023-01-30T02:01:12.845Z,6.52
2023-01-30T02:02:12.858Z,6.48
2023-01-30T02:03:12.888Z,6.38
2023-01-30T02:04:12.917Z,6.06
2023-01-30T02:05:12.984Z,6.83
2023-01-30T02:06:13.044Z,6.54
2023-01-30T02:07:13.095Z,6.95
2023-01-30T02:08:13.164Z,6.66
2023-01-30T02:09:13.163Z,6.92
2023-01-30T02:10:13.221Z,6.29
2023-01-30T02:11:13.312Z,7.18
2023-01-30T02:12:13.348Z,6.51
2023-01-30T02:13:13.401Z,6.34
2023-01-30T02:14:13.396Z,7.24
2023-01-30T02:15:13.496Z,6.74
2023-01-30T02:16:13.550Z,6.79
2023-01-30T02:17:13.657Z,6.56
2023-01-30T02:18:13.608Z,6.97
2023-01-30T02:19:13.664Z,6.23
2023-01-30T02:20:13.727Z,6.21
2023-01-30T02:21:13.816Z,6.19
2023-01-30T02:22:13.788Z,6.09
2023-01-30T02:23:13.833Z,6.40
2023-01-30T02:24:13.895Z,6.28
2023-01-30T02:25:13.952Z,6.18
2023-01-30T02:26:13.987Z,6.13
2023-01-30T02:27:14.041Z,6.99
2023-01-30T02:28:14.070Z,6.25
2023-01-30T02:29:14.097Z,6.97
2023-01-30T02:30:14.152Z,5.66
2023-01-30T02:31:14.395Z,6.04
2023-01-30T02:32:14.240Z,6.66
2023-01-30T02:33:14.310Z,7.33
2023-01-30T02:34:14.388Z,6.24
2023-01-30T02:35:14.376Z,6.30
2023-01-30T02:36:14.430Z,6.46
2023-01-30T02:37:14.509Z,6.80
2023-01-30T02:38:14.517Z,6.72
2023-01-30T02:39:14.553Z,6.17
2023-01-30T02:40:14.637Z,6.53
2023-01-30T02:41:14.674Z,6.82
2023-01-30T02:42:14.682Z,6.70
2023-01-30T02:43:14.751Z,6.37
2023-01-30T02:44:14.798Z,6.95
2023-01-30T02:45:14.791Z,6.78
2023-01-30T02:46:14.896Z,7.11
2023-01-30T02:47:14.877Z,7.19
2023-01-30T02:49:14.925Z,6.51
2023-01-30T02:50:14.964Z,6.66
2023-01-30T02:51:15.030Z,6.61
2023-01-30T02:52:16.802Z,6.17
2023-01-30T02:53:15.133Z,6.86
2023-01-30T02:54:15.155Z,6.19
2023-01-30T02:55:15.567Z,6.58
2023-01-30T02:56:15.246Z,6.57
2023-01-30T02:57:15.217Z,6.49
2023-01-30T02:58:15.265Z,6.24
2023-01-30T02:59:15.313Z,6.47
2023-01-30T03:01:15.420Z,6.45
2023-01-30T03:02:15.441Z,6.44
2023-01-30T03:03:15.423Z,6.54
2023-01-30T03:04:15.511Z,6.42
2023-01-30T03:05:16.023Z,6.35
2023-01-30T03:06:15.552Z,6.91
2023-01-30T03:07:15.637Z,6.95
2023-01-30T03:08:15.647Z,6.14
2023-01-30T03:09:15.658Z,6.56
2023-01-30T03:10:15.694Z,6.12
2023-01-30T03:11:15.687Z,6.91
2023-01-30T03:12:15.730Z,6.99
2023-01-30T03:13:16.553Z,6.68
2023-01-30T03:14:15.825Z,6.31
2023-01-30T03:15:16.123Z,6.40
2023-01-30T03:16:15.903Z,6.92
2023-01-30T03:17:15.907Z,6.17
2023-01-30T03:18:15.922Z,6.74
2023-01-30T03:28:16.160Z,6.82
2023-01-30T03:39:16.425Z,6.58
2023-01-30T03:40:16.424Z,6.61
2023-01-30T03:41:16.505Z,5.81
2023-01-30T03:42:16.476Z,5.79
2023-01-30T03:43:16.524Z,6.04
2023-01-30T03:44:16.561Z,6.23
2023-01-30T03:45:16.908Z,6.02
2023-01-30T03:46:16.654Z,5.98
2023-01-30T03:47:16.608Z,6.52
2023-01-30T03:48:16.631Z,6.71
2023-01-30T03:49:16.641Z,6.62
2023-01-30T03:50:16.690Z,6.39
2023-01-30T03:51:16.665Z,5.88
2023-01-30T03:52:16.760Z,6.30
2023-01-30T03:53:16.693Z,6.47
2023-01-30T03:54:16.731Z,6.21
2023-01-30T03:55:17.246Z,5.64
2023-01-30T03:56:16.785Z,6.51
2023-01-30T03:57:16.794Z,6.20
2023-01-30T03:58:16.817Z,6.46
2023-01-30T03:59:16.781Z,6.58
2023-01-30T04:00:16.813Z,6.60
2023-01-30T04:01:16.945Z,6.61
2023-01-30T04:02:16.923Z,6.29
2023-01-30T04:03:16.872Z,5.77
2023-01-30T04:04:16.900Z,6.74
2023-01-30T04:05:17.192Z,6.48
2023-01-30T04:06:16.914Z,5.96
2023-01-30T04:07:16.919Z,5.82
2023-01-30T04:08:16.932Z,5.81
2023-01-30T04:09:16.957Z,6.30
2023-01-30T04:10:17.008Z,6.32
2023-01-30T04:13:17.030Z,6.14
2023-01-30T04:14:17.039Z,6.52
2023-01-30T04:15:17.377Z,6.12
2023-01-30T04:16:17.121Z,5.94
2023-01-30T04:17:17.097Z,6.50
2023-01-30T04:18:17.097Z,6.07
2023-01-30T04:19:17.111Z,6.06
2023-01-30T04:20:17.117Z,6.33
2023-01-30T04:21:17.126Z,6.21
2023-01-30T04:22:17.109Z,6.11
2023-01-30T04:23:17.161Z,6.30
2023-01-30T04:25:17.468Z,6.27
2023-01-30T04:26:17.174Z,6.63
2023-01-30T04:27:17.214Z,7.06
2023-01-30T04:28:17.233Z,6.63
2023-01-30T04:29:17.191Z,6.15
2023-01-30T04:30:17.216Z,5.93
2023-01-30T04:31:17.252Z,6.27
2023-01-30T04:32:17.211Z,6.33
2023-01-30T04:33:17.226Z,5.97
2023-01-30T04:34:17.243Z,6.28
2023-01-30T06:01:27.842Z,6.25
2023-01-30T06:55:22.199Z,9.05
2023-01-30T07:39:21.736Z,8.77
2023-01-30T07:40:21.776Z,8.97
2023-01-30T07:41:21.766Z,9.29
2023-01-30T07:42:21.751Z,9.84
2023-01-30T07:43:21.826Z,11.05
2023-01-30T07:44:22.069Z,13.03
2023-01-30T07:45:22.747Z,14.74
2023-01-30T07:46:21.820Z,14.51
2023-01-30T07:47:22.695Z,14.21
2023-01-30T07:48:21.925Z,13.39
2023-01-30T07:49:22.197Z,12.89
2023-01-30T07:50:22.006Z,12.97
2023-01-30T07:51:22.071Z,12.13
2023-01-30T07:52:22.099Z,12.18
2023-01-30T07:53:22.153Z,12.70
2023-01-30T07:54:22.224Z,11.30
2023-01-30T07:55:22.239Z,11.53
2023-01-30T07:56:22.267Z,11.36
2023-01-30T07:57:22.337Z,10.61
2023-01-30T07:58:22.359Z,11.31
2023-01-30T07:59:22.735Z,9.88
2023-01-30T08:00:22.459Z,12.33
2023-01-30T08:01:22.528Z,12.39
2023-01-30T08:02:22.501Z,10.53
2023-01-30T08:03:22.556Z,12.18
2023-01-30T08:04:22.578Z,12.19
2023-01-30T08:05:22.626Z,10.88
2023-01-30T08:06:22.723Z,11.32
2023-01-30T08:07:22.712Z,11.37
2023-01-30T08:08:23.725Z,12.22
2023-01-30T08:09:22.784Z,11.28
2023-01-30T08:10:22.761Z,10.31
2023-01-30T08:11:22.882Z,11.70
2023-01-30T08:13:22.910Z,11.86
2023-01-30T08:14:22.959Z,10.27
2023-01-30T08:15:23.234Z,9.77
2023-01-30T08:16:23.000Z,10.50
2023-01-30T08:17:22.991Z,11.91
2023-01-30T08:18:22.998Z,10.56
2023-01-30T08:19:23.213Z,11.88
2023-01-30T08:20:23.060Z,11.71
2023-01-30T08:21:23.115Z,12.31
2023-01-30T08:22:23.126Z,12.80
2023-01-30T08:23:23.168Z,11.85
2023-01-30T08:24:23.169Z,12.12
2023-01-30T08:25:23.313Z,13.45
2023-01-30T08:27:23.316Z,11.54
2023-01-30T08:28:23.372Z,10.27
2023-01-30T08:29:23.399Z,10.58
2023-01-30T08:30:23.536Z,13.00
2023-01-30T08:31:23.668Z,11.07
2023-01-30T08:32:23.523Z,9.44
2023-01-30T08:33:23.604Z,10.90
2023-01-30T08:34:23.644Z,11.50
2023-01-30T08:35:23.654Z,10.45
2023-01-30T08:36:23.695Z,10.99
2023-01-30T08:37:23.743Z,11.77
2023-01-30T08:38:23.900Z,10.94
2023-01-30T08:39:23.878Z,11.27
2023-01-30T08:40:23.997Z,11.64
2023-01-30T08:41:24.024Z,11.36
2023-01-30T08:42:24.003Z,12.68
2023-01-30T08:43:24.066Z,12.00
2023-01-30T08:44:24.301Z,10.32
2023-01-30T08:45:24.191Z,11.07
2023-01-30T08:46:24.360Z,11.34
2023-01-30T08:47:24.293Z,10.53
2023-01-30T08:48:24.314Z,10.74
2023-01-30T08:49:24.377Z,10.76
2023-01-30T08:50:24.371Z,11.91
2023-01-30T08:51:24.333Z,10.85
2023-01-30T08:52:24.392Z,11.36
2023-01-30T08:53:24.461Z,11.48
2023-01-30T08:54:24.821Z,10.81
2023-01-30T08:55:24.614Z,10.76
2023-01-30T08:56:24.679Z,10.58
2023-01-30T08:57:24.739Z,10.30
2023-01-30T08:58:24.739Z,10.74
2023-01-30T08:59:24.804Z,10.64
2023-01-30T09:00:24.816Z,10.14
2023-01-30T09:01:24.887Z,10.83
2023-01-30T09:02:24.968Z,9.70
2023-01-30T09:03:24.932Z,10.22
2023-01-30T09:04:24.951Z,10.68
2023-01-30T09:05:25.003Z,10.41
2023-01-30T09:06:26.279Z,9.86
2023-01-30T09:07:24.953Z,9.68
2023-01-30T09:08:25.896Z,9.97
2023-01-30T09:09:24.976Z,9.23
2023-01-30T09:10:24.977Z,9.93
2023-01-30T09:11:25.002Z,10.65
2023-01-30T09:12:24.992Z,9.52
2023-01-30T09:13:25.007Z,10.01
2023-01-30T09:14:25.006Z,8.80
2023-01-30T09:15:24.957Z,8.97
2023-01-30T09:16:25.028Z,9.28
2023-01-30T09:17:25.029Z,9.93
2023-01-30T09:18:25.087Z,10.06
2023-01-30T09:19:25.088Z,9.32
2023-01-30T09:20:25.254Z,9.56
2023-01-30T09:21:25.180Z,9.73
2023-01-30T09:22:27.750Z,9.50
2023-01-30T09:23:25.435Z,9.26
2023-01-30T09:24:25.744Z,10.45
2023-01-30T09:25:25.527Z,9.22
2023-01-30T09:26:25.682Z,9.13
2023-01-30T09:27:25.659Z,8.76
2023-01-30T09:28:25.757Z,8.92
2023-01-30T09:29:25.696Z,9.59
2023-01-30T09:30:26.288Z,8.38
2023-01-30T09:31:25.948Z,9.26
2023-01-30T09:32:25.889Z,9.39
2023-01-30T09:33:25.963Z,9.24
2023-01-30T09:34:26.014Z,8.47
2023-01-30T09:35:26.031Z,8.88
2023-01-30T09:36:26.081Z,9.16
2023-01-30T09:37:26.121Z,9.22
2023-01-30T09:38:26.125Z,9.34
2023-01-30T09:39:26.143Z,8.89
2023-01-30T09:40:26.312Z,8.66
2023-01-30T09:41:26.237Z,9.22
2023-01-30T09:42:26.232Z,8.34
2023-01-30T09:43:26.293Z,8.64
2023-01-30T09:44:26.300Z,8.89
2023-01-30T09:45:26.342Z,9.02
2023-01-30T09:46:26.431Z,8.09
2023-01-30T09:47:26.453Z,8.35
2023-01-30T09:48:26.480Z,9.29
2023-01-30T09:49:26.494Z,8.69
2023-01-30T09:50:26.507Z,8.19
2023-01-30T09:51:26.496Z,8.08
2023-01-30T09:52:26.543Z,8.42
2023-01-30T09:53:26.559Z,8.70
2023-01-30T09:54:26.555Z,8.74
2023-01-30T09:55:26.818Z,9.01
2023-01-30T09:56:26.611Z,9.56
2023-01-30T09:57:26.670Z,9.55
2023-01-30T09:58:26.707Z,8.95
2023-01-30T09:59:26.670Z,9.30
2023-01-30T10:00:26.722Z,9.47
2023-01-30T10:01:26.730Z,9.90
2023-01-30T10:02:26.758Z,9.72
2023-01-30T10:03:26.844Z,9.96
2023-01-30T10:04:26.907Z,9.62
2023-01-30T10:05:26.894Z,8.98
2023-01-30T10:06:26.942Z,9.43
2023-01-30T10:07:26.990Z,8.71
2023-01-30T10:08:26.932Z,6.71
2023-01-30T10:09:26.968Z,7.33
2023-01-30T10:10:27.036Z,8.41
2023-01-30T10:11:27.022Z,8.23
2023-01-30T10:12:27.050Z,8.30
2023-01-30T10:13:27.095Z,7.81
2023-01-30T10:14:27.106Z,8.31
2023-01-30T10:15:27.161Z,7.59
2023-01-30T10:16:27.191Z,7.57
2023-01-30T10:17:27.280Z,7.49
2023-01-30T10:20:27.438Z,7.00
2023-01-30T10:26:27.707Z,6.60
2023-01-30T10:37:27.764Z,6.24
2023-01-30T10:38:27.844Z,6.31
2023-01-30T10:39:27.915Z,5.46
2023-01-30T10:40:27.953Z,6.00
2023-01-30T10:41:27.990Z,6.30
2023-01-30T10:42:28.067Z,6.18
2023-01-30T10:43:28.128Z,6.41
2023-01-30T10:44:28.244Z,5.97
2023-01-30T10:45:28.287Z,6.10
2023-01-30T10:46:28.263Z,6.55
2023-01-30T10:47:34.783Z,5.67
2023-01-30T10:48:42.634Z,5.80
2023-01-30T10:49:29.338Z,5.79
2023-01-30T10:50:28.319Z,5.89
2023-01-30T10:51:28.265Z,5.93
2023-01-30T10:52:28.301Z,6.15
2023-01-30T10:53:28.274Z,6.35
2023-01-30T10:54:28.262Z,5.57
2023-01-30T10:56:28.358Z,6.26
2023-01-30T10:57:28.264Z,6.11
2023-01-30T10:58:28.241Z,6.24
2023-01-30T10:59:28.210Z,6.36
2023-01-30T11:00:28.219Z,6.46
2023-01-30T11:01:28.280Z,6.47
2023-01-30T11:03:28.214Z,5.94
2023-01-30T11:04:28.200Z,6.34
2023-01-30T11:05:28.180Z,6.31
2023-01-30T11:06:28.246Z,5.90
2023-01-30T11:07:28.150Z,6.20
2023-01-30T11:08:28.260Z,6.88
2023-01-30T11:09:28.181Z,6.25
2023-01-30T11:10:28.209Z,6.29
2023-01-30T11:11:28.172Z,7.04
2023-01-30T11:12:28.152Z,6.45
2023-01-30T11:13:28.211Z,6.11
2023-01-30T11:14:28.169Z,6.80
2023-01-30T11:15:28.904Z,6.55
2023-01-30T11:16:29.381Z,6.60
2023-01-30T11:17:28.367Z,6.26
2023-01-30T11:19:29.441Z,6.47
2023-01-30T11:20:28.533Z,6.55
2023-01-30T11:21:38.544Z,6.32
2023-01-30T11:22:29.369Z,6.51
2023-01-30T11:28:28.307Z,6.75
2023-01-30T11:29:28.330Z,6.52
2023-01-30T11:30:28.348Z,6.90
2023-01-30T11:31:40.430Z,6.19
2023-01-30T11:32:29.551Z,5.86
2023-01-30T11:33:28.296Z,6.60
2023-01-30T11:35:28.331Z,5.72
2023-01-30T11:36:28.343Z,6.39
2023-01-30T11:37:28.256Z,7.34
2023-01-30T11:38:28.887Z,6.74
2023-01-30T11:39:28.264Z,7.11
2023-01-30T11:40:28.352Z,6.43
2023-01-30T11:41:28.255Z,6.11
2023-01-30T11:42:28.270Z,6.68
2023-01-30T11:43:28.266Z,6.32
2023-01-30T11:44:28.320Z,6.70
2023-01-30T11:45:28.374Z,6.13
2023-01-30T11:46:28.316Z,6.68
2023-01-30T11:47:28.340Z,6.84
2023-01-30T11:48:33.528Z,6.84
2023-01-30T11:50:49.874Z,6.18
2023-01-30T11:51:46.861Z,6.98
2023-01-30T11:52:46.868Z,6.61
2023-01-30T11:53:46.819Z,6.51
2023-01-30T11:54:46.824Z,6.12
2023-01-30T11:55:56.463Z,6.73
2023-01-30T11:57:46.813Z,5.95
2023-01-30T11:58:46.748Z,6.29
2023-01-30T11:59:46.811Z,6.41
2023-01-30T12:00:46.755Z,6.41
2023-01-30T12:01:46.853Z,5.96
2023-01-30T12:02:46.806Z,5.98
2023-01-30T12:03:46.795Z,6.00
2023-01-30T12:04:46.821Z,5.82
2023-01-30T12:05:46.859Z,6.09
2023-01-30T12:06:47.011Z,6.06
2023-01-30T12:07:46.936Z,6.66
2023-01-30T12:08:46.937Z,6.23
2023-01-30T12:09:46.989Z,6.14
2023-01-30T12:10:46.983Z,5.61
2023-01-30T12:11:47.038Z,5.31
2023-01-30T12:12:47.054Z,5.33
2023-01-30T12:13:47.123Z,4.73
2023-01-30T12:14:47.129Z,5.74
2023-01-30T12:15:47.139Z,5.50
2023-01-30T12:16:47.207Z,5.52
2023-01-30T12:17:47.167Z,5.13
2023-01-30T12:18:47.204Z,5.68
2023-01-30T12:19:47.202Z,5.46
2023-01-30T12:20:47.202Z,5.35
2023-01-30T12:21:47.594Z,5.25
2023-01-30T12:22:47.279Z,5.41
2023-01-30T12:23:47.285Z,5.18
2023-01-30T12:28:29.807Z,4.96
2023-01-30T12:31:30.046Z,5.17
2023-01-30T12:32:29.772Z,5.45
2023-01-30T12:33:29.845Z,5.19
2023-01-30T12:37:30.004Z,5.22
2023-01-30T12:38:30.081Z,4.91
2023-01-30T12:41:30.250Z,5.28
2023-01-30T12:42:30.332Z,5.35
2023-01-30T12:43:30.362Z,5.11
2023-01-30T12:44:30.419Z,5.14
2023-01-30T12:45:30.472Z,5.64
2023-01-30T12:46:30.570Z,4.78
2023-01-30T12:47:30.553Z,5.25
2023-01-30T12:48:30.600Z,5.52
2023-01-30T13:21:32.403Z,5.11
2023-01-30T13:22:32.145Z,5.35
2023-01-30T13:23:32.283Z,4.48
2023-01-30T13:24:32.269Z,4.86
2023-01-30T13:25:32.344Z,4.24
2023-01-30T13:26:32.358Z,4.58
2023-01-30T13:27:32.440Z,4.69
2023-01-30T13:28:32.453Z,4.77
2023-01-30T13:29:32.497Z,5.08
2023-01-30T13:30:32.529Z,4.67
2023-01-30T13:31:32.698Z,4.53
2023-01-30T13:32:32.753Z,4.96
2023-01-30T13:33:32.704Z,4.48
2023-01-30T13:57:34.046Z,4.09
2023-01-30T17:30:39.179Z,3.54
2023-01-30T18:24:38.373Z,3.74
2023-01-30T18:25:38.402Z,3.87
2023-01-30T18:26:38.468Z,3.28
2023-01-30T18:27:38.426Z,3.73
2023-01-30T18:28:38.459Z,3.57
2023-01-30T18:30:38.516Z,3.84
2023-01-30T18:32:50.854Z,3.54
2023-01-30T18:34:38.528Z,4.16
2023-01-30T18:35:38.504Z,3.91
2023-01-30T18:36:38.484Z,3.77
2023-01-30T18:37:38.500Z,3.23
2023-01-30T20:09:42.165Z,3.54
2023-01-30T20:10:42.209Z,3.18
2023-01-30T20:11:42.236Z,3.86
2023-01-30T20:12:42.243Z,3.55
2023-01-30T20:13:42.241Z,4.15
2023-01-30T20:14:42.250Z,3.90
2023-01-30T20:15:42.227Z,4.46
2023-01-30T20:16:42.301Z,3.64
2023-01-30T20:17:42.379Z,3.95
2023-01-30T20:18:42.377Z,3.58
2023-01-30T20:19:42.358Z,3.64
2023-01-30T20:20:42.336Z,3.73
2023-01-30T20:21:42.338Z,4.21
2023-01-30T20:22:42.374Z,3.86
2023-01-30T20:23:42.406Z,4.51
2023-01-30T20:24:42.450Z,3.69
2023-01-30T20:25:42.527Z,3.24
2023-01-30T20:26:42.693Z,3.60
2023-01-30T20:27:42.653Z,3.32
2023-01-30T20:28:42.649Z,3.37
2023-01-30T20:29:42.626Z,4.01
2023-01-30T20:30:42.666Z,3.84
2023-01-30T20:31:42.636Z,3.40
2023-01-30T20:32:42.674Z,3.96
2023-01-30T20:33:42.797Z,3.61
2023-01-30T20:34:42.831Z,3.71
2023-01-30T20:35:42.906Z,3.41
2023-01-30T20:36:42.909Z,3.49
2023-01-30T20:37:42.914Z,3.36
2023-01-30T20:38:42.922Z,3.59
2023-01-30T20:39:42.891Z,3.71
2023-01-30T20:40:42.914Z,4.19
2023-01-30T20:41:42.906Z,3.71
2023-01-30T20:42:42.990Z,3.81
2023-01-30T20:43:43.120Z,4.03
2023-01-30T20:44:43.068Z,3.79
2023-01-30T20:45:43.101Z,3.41
2023-01-30T20:46:43.136Z,3.42
2023-01-30T20:47:43.092Z,3.66
2023-01-30T20:48:43.056Z,4.03
2023-01-30T20:49:43.089Z,3.84
2023-01-30T20:50:43.065Z,3.48
2023-01-30T20:51:43.093Z,3.51
2023-01-30T20:52:43.096Z,4.12
2023-01-30T20:53:43.048Z,3.49
2023-01-30T20:54:43.104Z,4.88
2023-01-30T20:55:43.119Z,3.78
2023-01-30T20:56:43.215Z,4.15
2023-01-30T20:57:43.206Z,4.05
2023-01-30T20:58:43.203Z,4.03
2023-01-30T20:59:43.208Z,3.63
2023-01-30T21:00:43.185Z,3.60
2023-01-30T21:01:43.184Z,3.90
2023-01-30T21:02:43.223Z,4.12
2023-01-30T21:03:43.337Z,3.93
2023-01-30T21:04:43.447Z,4.18
2023-01-30T21:05:43.467Z,3.81
2023-01-30T21:06:45.489Z,4.02
2023-01-30T21:07:43.424Z,3.63
2023-01-30T21:08:43.438Z,4.01
2023-01-30T21:09:43.428Z,3.83
2023-01-30T21:10:43.384Z,3.97
2023-01-30T21:11:43.378Z,3.71
2023-01-30T21:12:43.431Z,3.73
2023-01-30T21:13:43.363Z,3.48
2023-01-30T21:14:43.409Z,3.38
2023-01-30T21:15:43.386Z,3.92
2023-01-30T21:16:43.460Z,3.86
2023-01-30T21:17:43.362Z,3.62
2023-01-30T21:18:43.322Z,4.00
2023-01-30T21:19:43.693Z,3.52
2023-01-30T21:20:43.364Z,3.91
2023-01-30T21:21:43.372Z,3.58
2023-01-30T21:22:43.340Z,3.65
2023-01-30T21:23:43.344Z,3.31
2023-01-30T21:24:43.347Z,3.92
2023-01-30T21:25:43.301Z,3.25
2023-01-30T21:26:43.381Z,3.26
2023-01-30T21:27:43.322Z,4.24
2023-01-30T21:28:43.286Z,3.75
2023-01-30T21:29:43.276Z,2.91
2023-01-30T21:30:43.329Z,3.83
2023-01-30T21:31:43.353Z,3.55
2023-01-30T21:32:43.263Z,3.78
2023-01-30T21:33:43.245Z,3.29
2023-01-30T21:34:43.265Z,3.32
2023-01-30T21:35:43.260Z,3.42
2023-01-30T21:36:43.219Z,3.70
2023-01-30T21:37:43.222Z,4.01
2023-01-30T21:38:43.211Z,4.23
2023-01-30T21:39:43.232Z,3.56
2023-01-30T21:40:43.212Z,4.16
2023-01-30T21:41:43.178Z,3.74
2023-01-30T21:42:43.203Z,4.10
2023-01-30T21:43:43.178Z,3.76
2023-01-30T21:44:43.190Z,3.78
2023-01-30T21:45:43.192Z,3.92
2023-01-30T21:46:43.171Z,3.81
2023-01-30T21:47:43.181Z,3.84
2023-01-30T21:48:43.172Z,4.38
2023-01-30T21:49:43.161Z,3.67
2023-01-30T21:50:43.142Z,3.59
2023-01-30T21:51:43.125Z,3.80
2023-01-30T21:52:43.108Z,3.78
2023-01-30T21:53:43.112Z,3.36
2023-01-30T21:54:43.120Z,3.51
2023-01-30T21:55:43.104Z,3.96
2023-01-30T21:56:43.069Z,4.16
2023-01-30T21:57:43.089Z,3.57
2023-01-30T21:58:43.062Z,3.46
2023-01-30T21:59:43.075Z,3.69
2023-01-30T22:00:43.033Z,3.88
2023-01-30T22:01:43.065Z,3.33
2023-01-30T22:02:43.060Z,3.29
2023-01-30T22:03:43.039Z,4.11
2023-01-30T22:21:42.939Z,3.60
2023-01-30T22:22:42.894Z,4.07
2023-01-30T22:23:42.923Z,3.17
2023-01-30T22:24:42.917Z,3.51
2023-01-30T22:25:42.898Z,3.62
2023-01-30T22:26:42.969Z,3.57
2023-01-30T22:27:42.876Z,3.84
2023-01-30T22:28:42.884Z,3.75
2023-01-30T22:29:42.895Z,3.18
2023-01-30T22:30:42.869Z,4.41
2023-01-30T22:31:42.862Z,3.69
2023-01-30T22:32:42.838Z,3.62
2023-01-30T22:33:42.878Z,3.70
2023-01-30T22:34:42.889Z,3.74
2023-01-30T22:35:42.833Z,3.50
2023-01-30T22:36:42.844Z,3.55
2023-01-30T22:37:42.840Z,3.71
2023-01-30T22:38:42.820Z,3.43
2023-01-30T22:39:42.815Z,3.78
2023-01-30T22:40:42.821Z,3.85
2023-01-30T22:41:42.795Z,3.45
2023-01-30T22:42:42.768Z,3.63
2023-01-30T22:43:42.780Z,3.89
2023-01-30T22:44:42.797Z,3.93
2023-01-30T22:45:42.793Z,3.91
2023-01-30T22:46:42.775Z,3.47
2023-01-30T22:47:42.752Z,4.06
2023-01-30T22:48:42.781Z,3.49
2023-01-30T22:49:42.768Z,3.32
2023-01-30T22:50:42.716Z,3.21
2023-01-30T22:51:42.690Z,3.66
2023-01-30T22:52:42.748Z,3.67
2023-01-30T22:53:42.706Z,3.64
2023-01-30T22:54:42.706Z,3.82
2023-01-30T22:55:42.697Z,3.75
2023-01-30T22:56:42.732Z,3.51
2023-01-30T22:57:42.695Z,3.41
2023-01-30T22:58:42.692Z,3.66
2023-01-30T22:59:42.693Z,3.38
2023-01-30T23:00:42.670Z,3.52
2023-01-30T23:01:42.667Z,3.66
2023-01-30T23:02:42.672Z,3.39
2023-01-30T23:03:42.698Z,3.21
2023-01-30T23:04:42.670Z,3.42
2023-01-30T23:05:42.631Z,4.14
2023-01-30T23:06:42.635Z,3.60
2023-01-30T23:07:43.266Z,3.36
2023-01-30T23:08:42.705Z,3.89
2023-01-30T23:09:42.716Z,3.73
2023-01-30T23:10:42.708Z,3.87
2023-01-30T23:11:42.733Z,3.49
2023-01-30T23:12:42.716Z,3.13
2023-01-30T23:13:42.840Z,3.59
2023-01-30T23:14:42.909Z,3.77
2023-01-30T23:15:42.834Z,3.98
2023-01-30T23:16:42.883Z,3.13
2023-01-30T23:17:42.819Z,3.27
2023-01-30T23:18:42.924Z,3.28
2023-01-30T23:19:43.030Z,3.43
2023-01-30T23:20:43.003Z,3.39
2023-01-30T23:21:43.049Z,3.33
2023-01-30T23:22:43.046Z,2.97
2023-01-30T23:23:43.058Z,3.36
2023-01-30T23:24:43.067Z,3.38
2023-01-30T23:25:43.119Z,3.39
2023-01-30T23:26:43.284Z,3.04
2023-01-30T23:27:43.339Z,3.32
2023-01-30T23:28:43.353Z,3.27
2023-01-30T23:29:43.348Z,3.86
2023-01-30T23:30:43.367Z,3.68
2023-01-30T23:31:44.489Z,2.98
2023-01-30T23:32:43.374Z,3.64
2023-01-30T23:33:43.386Z,3.43
2023-01-30T23:34:43.461Z,3.26
2023-01-30T23:35:43.438Z,3.45
2023-01-30T23:36:43.461Z,3.69
2023-01-30T23:37:43.455Z,3.50
2023-01-30T23:38:43.454Z,3.12
2023-01-30T23:39:43.584Z,3.18
2023-01-30T23:40:43.580Z,3.52
2023-01-30T23:41:44.237Z,3.18
2023-01-30T23:42:43.999Z,3.45
2023-01-30T23:43:43.595Z,2.91
2023-01-30T23:44:43.614Z,3.20
2023-01-30T23:45:43.682Z,3.36
2023-01-30T23:46:44.306Z,3.74
2023-01-30T23:47:43.675Z,3.66
2023-01-30T23:48:43.686Z,2.81
2023-01-30T23:49:43.688Z,3.44
2023-01-30T23:50:44.178Z,4.07
2023-01-30T23:51:44.225Z,3.43
2023-01-30T23:52:44.001Z,3.50
2023-01-30T23:53:43.711Z,3.20
2023-01-30T23:54:43.770Z,2.75
2023-01-30T23:55:43.782Z,3.35
2023-01-30T23:56:43.778Z,3.13
2023-01-30T23:57:43.851Z,3.53
2023-01-30T23:58:44.561Z,3.04
2023-01-30T23:59:44.296Z,3.31
